Presque Isle, ME

3:20 AM EDT on July 23, 2017 (GMT -0400)
Northern Maine Regional At Presque Isle

Weather History for KPQI - November, 2012

Change the Weather History Date:

Monday, November 5, 2012

  Actual Average Record
Temperature  
Mean Temperature 30 °F -  
Max Temperature 33 °F 45 °F 69 °F (1950)
Min Temperature 28 °F 30 °F 14 °F (2002)
Degree Days  
Heating Degree Days 34    
Moisture  
Dew Point 15 °F    
Average Humidity 52    
Maximum Humidity 69    
Minimum Humidity 41    
Precipitation  
Precipitation 0.00 in - - ()
Sea Level Pressure  
Sea Level Pressure 29.87 in    
Wind  
Wind Speed 9 mph (NW)    
Max Wind Speed 14 mph    
Max Gust Speed 18 mph    
Visibility 10 miles    
Events      
Averages and records for this station are not official NWS values.
T = Trace of Precipitation, MM = Missing Value Source: NWS Daily Summary

Daily Weather History Graph

Daily Weather History Graph

Search for Another Location

Airport or City:

Trip Planner

Search our weather history database for the weather conditions in past years. The results will help you decide how hot, cold, wet, or windy it might be!

Date:

Astronomy

Nov. 05, 2012 Rise Set
Actual Time 6:20 AM EST 4:10 PM EST
Civil Twilight 5:48 AM EST 4:42 PM EST
Nautical Twilight 5:12 AM EST 5:18 PM EST
Astronomical Twilight 4:37 AM EST 5:53 PM EST
Moon 9:44 PM EST (11/5) 11:39 AM EST (11/5)
Length of Visible Light 10h 53m
Length of Day
9h 49m
Waning Gibbous, 63% of the Moon is Illuminated
Nov 5
Waning Gibbous
Nov 6
Last Quarter
Nov 13
New
Nov 20
First Quarter
Nov 28
Full

Hourly Weather History & Observations

Time (EST) Temp. Windchill Dew Point Humidity Pressure Visibility Wind Dir Wind Speed Gust Speed Precip Events Conditions
12:15 AM 33.8 °F 25.3 °F 17.6 °F 52% 29.80 in 10.0 mi NW 11.5 mph - N/A   Overcast
12:35 AM 33.8 °F 27.0 °F 15.8 °F 48% 29.80 in 10.0 mi NW 8.1 mph - N/A   Overcast
12:55 AM 33.8 °F 25.3 °F 15.8 °F 48% 29.80 in 10.0 mi NW 11.5 mph 18.4 mph N/A   Overcast
1:15 AM 33.8 °F 25.8 °F 15.8 °F 48% 29.81 in 10.0 mi NNW 10.4 mph - N/A   Overcast
1:35 AM 33.8 °F 26.4 °F 15.8 °F 48% 29.81 in 10.0 mi NW 9.2 mph 17.3 mph N/A   Overcast
1:55 AM 33.8 °F 27.0 °F 17.6 °F 52% 29.81 in 10.0 mi NW 8.1 mph - N/A   Overcast
2:15 AM 33.8 °F 28.6 °F 15.8 °F 48% 29.81 in 10.0 mi NNW 5.8 mph - N/A   Overcast
2:35 AM 32.0 °F 25.6 °F 17.6 °F 55% 29.81 in 10.0 mi NNW 6.9 mph - N/A   Overcast
2:55 AM 32.0 °F 26.4 °F 17.6 °F 55% 29.81 in 10.0 mi North 5.8 mph - N/A   Overcast
3:15 AM 32.0 °F 24.8 °F 17.6 °F 55% 29.81 in 10.0 mi North 8.1 mph - N/A   Overcast
3:35 AM 32.0 °F 25.6 °F 17.6 °F 55% 29.82 in 10.0 mi NNW 6.9 mph - N/A   Overcast
3:55 AM 32.0 °F 24.8 °F 19.4 °F 60% 29.82 in 10.0 mi NNW 8.1 mph - N/A   Overcast
4:15 AM 32.0 °F 24.8 °F 19.4 °F 60% 29.82 in 10.0 mi NNW 8.1 mph - N/A   Overcast
4:35 AM 32.0 °F 24.2 °F 17.6 °F 55% 29.82 in 10.0 mi NNW 9.2 mph - N/A   Overcast
4:55 AM 32.0 °F 24.2 °F 19.4 °F 60% 29.83 in 10.0 mi North 9.2 mph - N/A   Overcast
5:15 AM 32.0 °F 22.5 °F 17.6 °F 55% 29.83 in 10.0 mi NNW 12.7 mph - N/A   Overcast
5:35 AM 30.2 °F 21.3 °F 17.6 °F 60% 29.84 in 10.0 mi NNW 10.4 mph - N/A   Overcast
5:55 AM 30.2 °F 23.4 °F 19.4 °F 64% 29.84 in 10.0 mi NNW 6.9 mph - N/A   Overcast
6:15 AM 30.2 °F 22.6 °F 17.6 °F 60% 29.84 in 10.0 mi NNW 8.1 mph - N/A   Overcast
6:35 AM 30.2 °F 19.8 °F 17.6 °F 60% 29.85 in 10.0 mi NNW 13.8 mph - N/A   Overcast
6:55 AM 30.2 °F 19.8 °F 15.8 °F 55% 29.85 in 10.0 mi NNW 13.8 mph - N/A   Overcast
7:15 AM 30.2 °F 21.3 °F 15.8 °F 55% 29.85 in 10.0 mi North 10.4 mph - N/A   Overcast
7:35 AM 30.2 °F 21.9 °F 15.8 °F 55% 29.86 in 10.0 mi NNW 9.2 mph - N/A   Overcast
7:55 AM 30.2 °F 20.8 °F 15.8 °F 55% 29.85 in 10.0 mi NNW 11.5 mph - N/A   Overcast
8:15 AM 30.2 °F 20.8 °F 15.8 °F 55% 29.86 in 10.0 mi NW 11.5 mph - N/A   Overcast
8:35 AM 32.0 °F 24.2 °F 14.0 °F 48% 29.86 in 10.0 mi NW 9.2 mph - N/A   Overcast
9:15 AM 32.0 °F 23.0 °F 12.2 °F 44% 29.86 in 10.0 mi NNW 11.5 mph 17.3 mph N/A   Overcast
9:35 AM 32.0 °F 25.6 °F 10.4 °F 41% 29.86 in 10.0 mi NNW 6.9 mph - N/A   Overcast
9:55 AM 32.0 °F 23.0 °F 12.2 °F 44% 29.87 in 10.0 mi NNW 11.5 mph - N/A   Overcast
10:15 AM 32.0 °F 24.8 °F 12.2 °F 44% 29.87 in 10.0 mi NNW 8.1 mph - N/A   Overcast
10:35 AM 33.8 °F 25.8 °F 12.2 °F 41% 29.87 in 10.0 mi North 10.4 mph - N/A   Overcast
10:55 AM 33.8 °F 25.8 °F 12.2 °F 41% 29.87 in 10.0 mi NNW 10.4 mph - N/A   Overcast
11:15 AM 33.8 °F 27.7 °F 14.0 °F 44% 29.87 in 10.0 mi NW 6.9 mph - N/A   Overcast
11:35 AM 32.0 °F 23.0 °F 12.2 °F 44% 29.87 in 10.0 mi NNW 11.5 mph - N/A   Overcast
11:55 AM 33.8 °F 26.4 °F 12.2 °F 41% 29.87 in 10.0 mi NW 9.2 mph - N/A   Overcast
12:15 PM 33.8 °F 27.0 °F 12.2 °F 41% 29.87 in 10.0 mi NW 8.1 mph - N/A   Overcast
12:35 PM 32.0 °F 24.2 °F 14.0 °F 48% 29.87 in 10.0 mi NW 9.2 mph - N/A   Overcast
12:55 PM 33.8 °F 27.7 °F 12.2 °F 41% 29.86 in 10.0 mi WNW 6.9 mph - N/A   Overcast
1:15 PM 33.8 °F 27.7 °F 12.2 °F 41% 29.86 in 10.0 mi NNW 6.9 mph - N/A   Overcast
1:55 PM 33.8 °F 26.4 °F 14.0 °F 44% 29.86 in 10.0 mi NNW 9.2 mph - N/A   Overcast
2:15 PM 33.8 °F 26.4 °F 14.0 °F 44% 29.87 in 10.0 mi NW 9.2 mph - N/A   Overcast
2:35 PM 32.0 °F 24.2 °F 14.0 °F 48% 29.87 in 10.0 mi WNW 9.2 mph - N/A   Overcast
2:55 PM 30.2 °F 21.3 °F 15.8 °F 55% 29.87 in 6.0 mi NW 10.4 mph 16.1 mph N/A   Overcast
3:15 PM 30.2 °F 24.3 °F 17.6 °F 60% 29.87 in 10.0 mi NW 5.8 mph - N/A   Overcast
3:35 PM 30.2 °F 23.4 °F 17.6 °F 60% 29.87 in 10.0 mi NW 6.9 mph - N/A   Overcast
3:55 PM 30.2 °F 23.4 °F 17.6 °F 60% 29.87 in 10.0 mi NW 6.9 mph - N/A   Overcast
4:15 PM 30.2 °F 23.4 °F 17.6 °F 60% 29.88 in 10.0 mi NW 6.9 mph - N/A   Overcast
4:35 PM 28.4 °F 19.1 °F 19.4 °F 69% 29.89 in 4.0 mi West 10.4 mph - N/A   Overcast
4:55 PM 30.2 °F 23.4 °F 19.4 °F 64% 29.90 in 10.0 mi WNW 6.9 mph - N/A   Overcast
5:15 PM 30.2 °F 26.7 °F 17.6 °F 60% 29.90 in 10.0 mi NW 3.5 mph - N/A   Overcast
5:35 PM 30.2 °F 26.7 °F 19.4 °F 64% 29.91 in 10.0 mi WNW 3.5 mph - N/A   Overcast
5:55 PM 30.2 °F 25.4 °F 15.8 °F 55% 29.92 in 10.0 mi WNW 4.6 mph - N/A   Overcast
6:15 PM 30.2 °F 24.3 °F 14.0 °F 51% 29.92 in 10.0 mi WNW 5.8 mph - N/A   Overcast
6:35 PM 30.2 °F 22.6 °F 14.0 °F 51% 29.92 in 10.0 mi WNW 8.1 mph - N/A   Overcast
6:55 PM 30.2 °F 24.3 °F 10.4 °F 44% 29.92 in 10.0 mi NW 5.8 mph - N/A   Overcast
7:15 PM 30.2 °F 25.4 °F 12.2 °F 47% 29.92 in 10.0 mi NW 4.6 mph - N/A   Overcast
7:35 PM 28.4 °F 24.6 °F 12.2 °F 51% 29.92 in 10.0 mi WNW 3.5 mph - N/A   Overcast
7:55 PM 30.2 °F 26.7 °F 12.2 °F 47% 29.92 in 10.0 mi NW 3.5 mph - N/A   Overcast
8:15 PM 28.4 °F 23.3 °F 14.0 °F 55% 29.93 in 10.0 mi WNW 4.6 mph - N/A   Overcast
8:35 PM 28.4 °F 24.6 °F 14.0 °F 55% 29.92 in 10.0 mi WNW 3.5 mph - N/A   Overcast
9:15 PM 28.4 °F 24.6 °F 15.8 °F 59% 29.92 in 10.0 mi West 3.5 mph - N/A   Overcast
9:35 PM 28.4 °F 23.3 °F 14.0 °F 55% 29.91 in 10.0 mi NW 4.6 mph - N/A   Overcast
9:55 PM 28.4 °F 23.3 °F 12.2 °F 51% 29.91 in 10.0 mi WNW 4.6 mph - N/A   Overcast
10:15 PM 28.4 °F 23.3 °F 12.2 °F 51% 29.91 in 10.0 mi WNW 4.6 mph - N/A   Overcast
10:35 PM 28.4 °F 23.3 °F 14.0 °F 55% 29.91 in 10.0 mi West 4.6 mph - N/A   Overcast
10:55 PM 28.4 °F 23.3 °F 14.0 °F 55% 29.91 in 10.0 mi WNW 4.6 mph - N/A   Overcast
11:35 PM 28.4 °F 22.2 °F 14.0 °F 55% 29.91 in 10.0 mi WNW 5.8 mph - N/A   Overcast
11:55 PM 28.4 °F 22.2 °F 14.0 °F 55% 29.91 in 10.0 mi West 5.8 mph - N/A   Overcast